Terminal Aerodrome Forecast
Issued by NWS

Home | Current Version | Previous Version | Text Only | Print | Product List | Glossary On
Versions: 1 2 3 4 5 6 7 8 9 10 11 12 13
895
FTUS42 TJSJ 191140
TAFJBQ
TAF
TJBQ 191140Z 1912/2012 11005KT P6SM BKN060
     FM191300 08012KT P6SM SCT060
     FM191630 08015KT P6SM VCTS SCT030CB SCT050
     FM192300 11005KT P6SM FEW060
      AMD NOT SKED 2002/2011=

USA.gov is the U.S. government's official web portal to all federal, state and local government web resources and services.